createdAt,value
2018-08-06T00:00:48.678Z,0
2018-08-06T00:01:49.356Z,0
2018-08-06T00:02:50.033Z,0
2018-08-06T00:03:50.711Z,0
2018-08-06T00:04:51.388Z,0
2018-08-06T00:05:52.067Z,0
2018-08-06T00:06:52.742Z,0
2018-08-06T00:07:53.420Z,0
2018-08-06T00:08:54.096Z,0
2018-08-06T00:09:54.772Z,0
2018-08-06T00:10:55.451Z,0
2018-08-06T00:11:56.127Z,0
2018-08-06T00:12:56.805Z,0
2018-08-06T00:13:57.481Z,0
2018-08-06T00:14:58.159Z,0
2018-08-06T00:15:58.836Z,0
2018-08-06T00:16:59.514Z,0
2018-08-06T00:18:00.189Z,0
2018-08-06T00:19:00.867Z,0
2018-08-06T00:20:01.548Z,0
2018-08-06T00:21:02.267Z,0
2018-08-06T00:22:02.945Z,0
2018-08-06T00:23:03.620Z,0
2018-08-06T00:24:04.297Z,0
2018-08-06T00:25:04.974Z,0
2018-08-06T00:26:05.653Z,0
2018-08-06T00:27:06.325Z,0
2018-08-06T00:28:07.000Z,0
2018-08-06T00:29:07.677Z,0
2018-08-06T00:30:08.352Z,0
2018-08-06T00:31:09.029Z,0
2018-08-06T00:32:09.704Z,0
2018-08-06T00:33:10.381Z,0
2018-08-06T00:34:11.133Z,0
2018-08-06T00:35:11.770Z,0
2018-08-06T00:36:12.446Z,0
2018-08-06T00:37:13.121Z,0
2018-08-06T00:38:13.795Z,0
2018-08-06T00:39:14.472Z,0
2018-08-06T00:40:15.148Z,0
2018-08-06T00:41:15.824Z,0
2018-08-06T00:42:16.498Z,0
2018-08-06T00:43:17.179Z,0
2018-08-06T00:44:17.850Z,0
2018-08-06T00:45:18.561Z,0
2018-08-06T00:46:19.203Z,0
2018-08-06T00:47:19.877Z,0
2018-08-06T00:48:20.552Z,0
2018-08-06T00:49:21.227Z,0
2018-08-06T00:50:21.902Z,0
2018-08-06T00:51:22.579Z,0
2018-08-06T00:52:23.253Z,0
2018-08-06T00:53:23.928Z,0
2018-08-06T00:54:24.609Z,0
2018-08-06T00:55:25.283Z,0
2018-08-06T00:56:26.007Z,0
2018-08-06T00:57:26.679Z,0
2018-08-06T00:58:27.356Z,0
2018-08-06T00:59:28.030Z,0
2018-08-06T01:00:28.707Z,0
2018-08-06T01:01:29.381Z,0
2018-08-06T01:02:30.061Z,0
2018-08-06T01:03:30.733Z,0
2018-08-06T01:04:31.408Z,0
2018-08-06T01:05:32.087Z,0
2018-08-06T01:06:32.757Z,0
2018-08-06T01:07:33.432Z,0
2018-08-06T01:08:34.109Z,0
2018-08-06T01:09:34.784Z,0
2018-08-06T01:10:35.461Z,0
2018-08-06T01:11:36.137Z,0
2018-08-06T01:12:36.813Z,0
2018-08-06T01:13:37.491Z,0
2018-08-06T01:14:38.166Z,0
2018-08-06T01:15:38.843Z,0
2018-08-06T01:16:39.519Z,0
2018-08-06T01:17:40.195Z,0
2018-08-06T01:18:40.873Z,0
2018-08-06T01:19:41.550Z,0
2018-08-06T01:20:42.224Z,0
2018-08-06T01:21:42.903Z,0
2018-08-06T01:22:43.577Z,0
2018-08-06T01:23:44.326Z,0
2018-08-06T01:24:44.972Z,0
2018-08-06T01:25:45.646Z,0
2018-08-06T01:26:46.325Z,0
2018-08-06T01:27:47.001Z,0
2018-08-06T01:28:47.677Z,0
2018-08-06T01:29:48.352Z,0
2018-08-06T01:30:49.026Z,0
2018-08-06T01:31:49.704Z,0
2018-08-06T01:32:50.378Z,0
2018-08-06T01:33:51.055Z,0
2018-08-06T01:34:51.730Z,0
2018-08-06T01:35:52.411Z,0
2018-08-06T01:36:53.082Z,0
2018-08-06T01:37:53.762Z,0
2018-08-06T01:38:54.470Z,0
2018-08-06T01:39:55.113Z,0
2018-08-06T01:40:55.787Z,0
2018-08-06T01:41:56.463Z,0
2018-08-06T01:42:57.142Z,0
2018-08-06T01:43:57.813Z,0
2018-08-06T01:44:58.487Z,0
2018-08-06T01:45:59.164Z,0
2018-08-06T01:46:59.840Z,0
2018-08-06T01:48:00.515Z,0
2018-08-06T01:49:01.191Z,0
2018-08-06T01:50:01.873Z,0
2018-08-06T01:51:02.549Z,0
2018-08-06T01:52:03.225Z,0
2018-08-06T01:53:03.900Z,0
2018-08-06T01:54:04.574Z,0
2018-08-06T01:55:05.252Z,0
2018-08-06T01:56:05.926Z,0
2018-08-06T01:57:06.601Z,0
2018-08-06T01:58:07.274Z,0
2018-08-06T01:59:07.952Z,0
2018-08-06T02:00:08.628Z,0
2018-08-06T02:01:09.302Z,0
2018-08-06T02:02:09.978Z,0
2018-08-06T02:03:10.652Z,0
2018-08-06T02:04:11.327Z,0
2018-08-06T02:05:12.004Z,0
2018-08-06T02:06:12.679Z,0
2018-08-06T02:07:13.354Z,0
2018-08-06T02:08:14.029Z,0
2018-08-06T02:09:14.705Z,0
2018-08-06T02:10:15.381Z,0
2018-08-06T02:11:16.057Z,0
2018-08-06T02:12:16.734Z,0
2018-08-06T02:13:17.408Z,0
2018-08-06T02:14:18.086Z,0
2018-08-06T02:15:18.761Z,0
2018-08-06T02:16:19.436Z,0
2018-08-06T02:17:20.111Z,0
2018-08-06T02:18:20.786Z,0
2018-08-06T02:19:21.463Z,0
2018-08-06T02:20:22.141Z,0
2018-08-06T02:21:22.815Z,0
2018-08-06T02:22:23.490Z,0
2018-08-06T02:23:24.164Z,0
2018-08-06T02:24:24.857Z,0
2018-08-06T02:25:25.516Z,0
2018-08-06T02:26:26.192Z,0
2018-08-06T02:27:26.868Z,0
2018-08-06T02:28:27.542Z,0
2018-08-06T02:29:28.218Z,0
2018-08-06T02:30:28.893Z,0
2018-08-06T02:31:29.597Z,0
2018-08-06T02:32:30.285Z,0
2018-08-06T02:33:30.962Z,0
2018-08-06T02:34:31.660Z,0
2018-08-06T02:35:32.357Z,0
2018-08-06T02:36:33.040Z,0
2018-08-06T02:37:33.708Z,0
2018-08-06T02:38:34.382Z,0
2018-08-06T02:39:35.059Z,0
2018-08-06T02:40:35.733Z,0
2018-08-06T02:41:36.407Z,0
2018-08-06T02:42:37.089Z,0
2018-08-06T02:43:37.759Z,0
2018-08-06T02:44:38.434Z,0
2018-08-06T02:45:39.154Z,0
2018-08-06T02:46:39.829Z,0
2018-08-06T02:47:40.505Z,0
2018-08-06T02:48:41.180Z,0
2018-08-06T02:49:41.854Z,0
2018-08-06T02:50:42.531Z,0
2018-08-06T02:51:43.205Z,0
2018-08-06T02:52:43.878Z,0
2018-08-06T02:53:44.553Z,0
2018-08-06T02:54:45.228Z,0
2018-08-06T02:55:45.903Z,0
2018-08-06T02:56:46.621Z,0
2018-08-06T02:57:47.299Z,0
2018-08-06T02:58:47.973Z,0
2018-08-06T02:59:48.647Z,0
2018-08-06T03:00:49.323Z,0
2018-08-06T03:01:49.998Z,0
2018-08-06T03:02:50.674Z,0
2018-08-06T03:03:51.349Z,0
2018-08-06T03:04:52.024Z,0
2018-08-06T03:05:52.698Z,0
2018-08-06T03:06:53.372Z,0
2018-08-06T03:07:54.048Z,0
2018-08-06T03:08:54.722Z,0
2018-08-06T03:09:55.448Z,0
2018-08-06T03:10:56.071Z,0
2018-08-06T03:11:56.746Z,0
2018-08-06T03:12:57.421Z,0
2018-08-06T03:13:58.096Z,4
2018-08-06T03:14:58.771Z,4
2018-08-06T03:15:59.444Z,0
2018-08-06T03:17:00.202Z,0
2018-08-06T03:18:00.794Z,4
2018-08-06T03:19:01.471Z,4
2018-08-06T03:20:02.195Z,4
2018-08-06T03:21:02.914Z,4
2018-08-06T03:22:03.591Z,8
2018-08-06T03:23:04.265Z,4
2018-08-06T03:24:04.940Z,4
2018-08-06T03:25:05.616Z,12
2018-08-06T03:26:06.292Z,12
2018-08-06T03:27:06.967Z,12
2018-08-06T03:28:07.644Z,12
2018-08-06T03:29:08.365Z,16
2018-08-06T03:30:09.045Z,20
2018-08-06T03:31:09.761Z,20
2018-08-06T03:32:10.437Z,24
2018-08-06T03:33:11.111Z,28
2018-08-06T03:34:11.791Z,32
2018-08-06T03:35:12.508Z,36
2018-08-06T03:36:13.185Z,40
2018-08-06T03:37:13.948Z,44
2018-08-06T03:38:14.572Z,52
2018-08-06T03:39:15.248Z,60
2018-08-06T03:40:15.981Z,64
2018-08-06T03:41:16.600Z,68
2018-08-06T03:42:17.275Z,80
2018-08-06T03:43:17.951Z,88
2018-08-06T03:44:18.628Z,100
2018-08-06T03:45:19.304Z,104
2018-08-06T03:46:19.980Z,116
2018-08-06T03:47:20.656Z,128
2018-08-06T03:48:21.335Z,136
2018-08-06T03:49:22.057Z,152
2018-08-06T03:50:22.734Z,160
2018-08-06T03:51:23.414Z,172
2018-08-06T03:52:24.090Z,192
2018-08-06T03:53:24.765Z,200
2018-08-06T03:54:25.447Z,216
2018-08-06T03:55:26.119Z,232
2018-08-06T03:56:26.794Z,248
2018-08-06T03:57:27.471Z,264
2018-08-06T03:58:28.147Z,284
2018-08-06T03:59:28.825Z,296
2018-08-06T04:00:29.502Z,316
2018-08-06T04:01:30.179Z,332
2018-08-06T04:02:30.860Z,352
2018-08-06T04:03:31.539Z,368
2018-08-06T04:04:32.219Z,388
2018-08-06T04:05:32.896Z,408
2018-08-06T04:06:33.573Z,424
2018-08-06T04:07:34.251Z,444
2018-08-06T04:08:34.975Z,464
2018-08-06T04:09:35.650Z,484
2018-08-06T04:10:36.328Z,504
2018-08-06T04:11:37.006Z,520
2018-08-06T04:12:37.683Z,536
2018-08-06T04:13:38.442Z,556
2018-08-06T04:14:39.040Z,576
2018-08-06T04:15:39.771Z,596
2018-08-06T04:16:40.495Z,616
2018-08-06T04:17:41.169Z,632
2018-08-06T04:18:41.847Z,652
2018-08-06T04:19:42.544Z,672
2018-08-06T04:20:43.204Z,688
2018-08-06T04:21:43.880Z,704
2018-08-06T04:22:44.558Z,720
2018-08-06T04:23:45.238Z,736
2018-08-06T04:24:45.915Z,756
2018-08-06T04:25:46.592Z,776
2018-08-06T04:26:47.272Z,792
2018-08-06T04:27:47.948Z,808
2018-08-06T04:28:48.633Z,820
2018-08-06T04:29:49.348Z,840
2018-08-06T04:30:50.027Z,860
2018-08-06T04:31:50.704Z,876
2018-08-06T04:32:51.413Z,892
2018-08-06T04:33:52.067Z,908
2018-08-06T04:34:52.740Z,924
2018-08-06T04:35:53.415Z,940
2018-08-06T04:36:54.093Z,956
2018-08-06T04:37:54.771Z,972
2018-08-06T04:38:55.449Z,988
2018-08-06T04:39:56.131Z,1000
2018-08-06T04:40:56.808Z,1016
2018-08-06T04:41:57.492Z,1028
2018-08-06T04:42:58.167Z,1044
2018-08-06T04:43:58.847Z,1064
2018-08-06T04:44:59.527Z,1076
2018-08-06T04:46:00.242Z,1092
2018-08-06T04:47:00.887Z,1104
2018-08-06T04:48:01.570Z,1120
2018-08-06T04:49:02.245Z,1132
2018-08-06T04:50:02.926Z,1148
2018-08-06T04:51:03.605Z,1164
2018-08-06T04:52:04.283Z,1180
2018-08-06T04:53:04.963Z,1192
2018-08-06T04:54:05.642Z,1204
2018-08-06T04:55:06.320Z,1220
2018-08-06T04:56:06.999Z,1232
2018-08-06T04:57:07.677Z,1244
2018-08-06T04:58:08.357Z,1256
2018-08-06T04:59:09.035Z,1272
2018-08-06T05:00:09.714Z,1284
2018-08-06T05:01:10.395Z,1300
2018-08-06T05:02:11.073Z,1308
2018-08-06T05:03:11.753Z,1320
2018-08-06T05:04:12.432Z,1332
2018-08-06T05:05:13.110Z,1348
2018-08-06T05:06:13.788Z,1356
2018-08-06T05:07:14.467Z,1368
2018-08-06T05:08:15.146Z,1380
2018-08-06T05:09:15.824Z,1392
2018-08-06T05:10:16.505Z,1400
2018-08-06T05:11:17.186Z,1412
2018-08-06T05:12:17.864Z,1424
2018-08-06T05:13:18.545Z,1440
2018-08-06T05:14:19.224Z,1448
2018-08-06T05:15:19.903Z,1460
2018-08-06T05:16:20.584Z,1468
2018-08-06T05:17:21.263Z,1480
2018-08-06T05:18:21.941Z,1488
2018-08-06T05:19:22.672Z,1500
2018-08-06T05:20:23.304Z,1512
2018-08-06T05:21:23.979Z,1520
2018-08-06T05:22:24.659Z,1532
2018-08-06T05:23:25.337Z,1544
2018-08-06T05:24:26.017Z,1552
2018-08-06T05:25:26.695Z,1564
2018-08-06T05:26:27.374Z,1572
2018-08-06T05:27:28.053Z,1584
2018-08-06T05:28:28.733Z,1592
2018-08-06T05:29:29.414Z,1600
2018-08-06T05:30:30.097Z,1608
2018-08-06T05:31:30.818Z,1616
2018-08-06T05:32:31.498Z,1628
2018-08-06T05:33:32.177Z,1636
2018-08-06T05:34:32.858Z,1648
2018-08-06T05:35:33.536Z,1656
2018-08-06T05:36:34.215Z,1668
2018-08-06T05:37:34.894Z,1680
2018-08-06T05:38:35.574Z,1688
2018-08-06T05:39:36.253Z,1700
2018-08-06T05:40:36.932Z,1712
2018-08-06T05:41:37.611Z,1724
2018-08-06T05:42:38.290Z,1736
2018-08-06T05:43:38.970Z,1748
2018-08-06T05:44:39.653Z,1760
2018-08-06T05:45:40.328Z,1776
2018-08-06T05:46:41.053Z,1788
2018-08-06T05:47:41.732Z,1804
2018-08-06T05:48:42.413Z,1816
2018-08-06T05:49:43.092Z,1828
2018-08-06T05:50:43.773Z,1844
2018-08-06T05:51:44.453Z,1860
2018-08-06T05:52:45.136Z,1876
2018-08-06T05:53:45.812Z,1892
2018-08-06T05:54:46.526Z,1900
2018-08-06T05:55:47.217Z,1916
2018-08-06T05:56:47.896Z,1928
2018-08-06T05:57:48.578Z,1940
2018-08-06T05:58:49.302Z,1952
2018-08-06T05:59:50.029Z,1968
2018-08-06T06:00:50.749Z,1980
2018-08-06T06:01:51.468Z,1996
2018-08-06T06:02:52.156Z,2012
2018-08-06T06:03:52.837Z,2028
2018-08-06T06:04:53.519Z,2044
2018-08-06T06:05:54.196Z,2060
2018-08-06T06:06:54.879Z,2076
2018-08-06T06:07:55.604Z,2092
2018-08-06T06:08:56.283Z,2104
2018-08-06T06:09:56.964Z,2120
2018-08-06T06:10:57.645Z,2136
2018-08-06T06:11:58.325Z,2156
2018-08-06T06:12:59.006Z,2176
2018-08-06T06:13:59.686Z,2196
2018-08-06T06:15:00.365Z,2216
2018-08-06T06:16:01.047Z,2232
2018-08-06T06:17:01.728Z,2256
2018-08-06T06:18:02.416Z,2280
2018-08-06T06:19:03.104Z,2300
2018-08-06T06:20:03.811Z,2324
2018-08-06T06:21:04.491Z,2348
2018-08-06T06:22:05.172Z,2368
2018-08-06T06:23:05.859Z,2392
2018-08-06T06:24:06.577Z,2432
2018-08-06T06:25:07.255Z,2476
2018-08-06T06:26:07.936Z,2532
2018-08-06T06:27:08.613Z,2592
2018-08-06T06:28:09.293Z,2684
2018-08-06T06:29:09.976Z,2816
2018-08-06T06:30:10.661Z,2988
2018-08-06T06:31:11.339Z,6132
2018-08-06T06:32:12.022Z,25472
2018-08-06T06:33:12.750Z,47776
2018-08-06T06:34:13.434Z,57216
2018-08-06T06:35:14.120Z,73152
2018-08-06T06:36:14.799Z,82560
2018-08-06T06:37:15.486Z,92384
2018-08-06T06:38:16.166Z,96864
2018-08-06T06:39:16.857Z,100992
2018-08-06T06:40:17.533Z,99616
2018-08-06T06:41:18.219Z,89216
2018-08-06T06:42:18.905Z,83840
2018-08-06T06:43:19.590Z,94112
2018-08-06T06:44:20.274Z,90496
2018-08-06T06:45:20.966Z,83200
2018-08-06T06:46:21.694Z,85088
2018-08-06T06:48:24.037Z,93728
2018-08-06T06:49:24.710Z,93600
2018-08-06T06:50:25.397Z,89568
2018-08-06T06:51:26.129Z,89152
2018-08-06T06:52:26.818Z,90304
2018-08-06T06:53:27.507Z,91328
2018-08-06T06:54:28.209Z,89344
2018-08-06T06:55:28.922Z,87168
2018-08-06T06:56:29.611Z,82272
2018-08-06T06:57:30.338Z,88480
2018-08-06T06:58:31.036Z,99424
2018-08-06T06:59:31.726Z,103104
2018-08-06T07:00:32.417Z,92800
2018-08-06T07:01:33.110Z,81568
2018-08-06T07:02:33.849Z,83648
2018-08-06T07:03:34.585Z,88288
2018-08-06T07:04:35.275Z,86080
2018-08-06T07:05:35.965Z,87360
2018-08-06T07:06:36.658Z,88864
2018-08-06T07:07:37.353Z,86848
2018-08-06T07:08:38.040Z,92608
2018-08-06T07:09:38.733Z,90304
2018-08-06T07:10:39.466Z,91328
2018-08-06T07:11:40.160Z,88032
2018-08-06T07:12:40.852Z,80992
2018-08-06T07:13:41.593Z,83968
2018-08-06T07:14:42.240Z,85984
2018-08-06T07:15:42.932Z,82848
2018-08-06T07:16:43.627Z,84128
2018-08-06T07:17:44.325Z,86720
2018-08-06T07:18:45.015Z,86016
2018-08-06T07:19:45.708Z,85024
2018-08-06T07:20:46.403Z,84992
2018-08-06T07:21:47.097Z,83264
2018-08-06T07:22:47.789Z,84736
2018-08-06T07:23:48.481Z,85856
2018-08-06T07:24:49.176Z,88448
2018-08-06T07:25:49.871Z,89056
2018-08-06T07:26:50.565Z,83648
2018-08-06T07:27:51.256Z,84000
2018-08-06T07:28:51.992Z,85504
2018-08-06T07:29:52.686Z,83456
2018-08-06T07:30:53.380Z,84992
2018-08-06T07:31:54.074Z,81952
2018-08-06T07:32:54.766Z,85280
2018-08-06T07:33:55.456Z,86720
2018-08-06T07:34:56.151Z,80832
2018-08-06T07:35:56.857Z,79200
2018-08-06T07:36:57.541Z,81440
2018-08-06T07:37:58.229Z,80416
2018-08-06T07:38:58.925Z,78272
2018-08-06T07:39:59.634Z,77152
2018-08-06T07:41:00.350Z,74048
2018-08-06T07:42:01.041Z,71936
2018-08-06T07:43:01.748Z,73184
2018-08-06T07:44:02.427Z,72448
2018-08-06T07:45:03.120Z,75840
2018-08-06T07:46:03.813Z,73952
2018-08-06T07:47:04.518Z,69184
2018-08-06T07:48:05.237Z,72224
2018-08-06T07:49:05.927Z,75680
2018-08-06T07:50:06.620Z,72128
2018-08-06T07:51:07.312Z,69536
2018-08-06T07:52:08.007Z,68608
2018-08-06T07:53:08.698Z,65216
2018-08-06T07:54:09.393Z,66624
2018-08-06T07:55:10.085Z,68096
2018-08-06T07:56:10.777Z,68320
2018-08-06T07:57:11.471Z,56608
2018-08-06T07:58:12.167Z,34400
2018-08-06T07:59:12.854Z,7168
2018-08-06T08:00:13.546Z,10760
2018-08-06T08:01:14.238Z,12172
2018-08-06T08:02:14.931Z,12404
2018-08-06T08:03:15.626Z,11396
2018-08-06T08:04:16.315Z,10868
2018-08-06T08:05:17.011Z,9860
2018-08-06T08:06:17.756Z,9716
2018-08-06T08:07:18.469Z,9364
2018-08-06T08:08:19.161Z,9224
2018-08-06T08:09:19.852Z,9156
2018-08-06T08:10:20.541Z,9304
2018-08-06T08:11:21.234Z,7528
2018-08-06T08:12:21.925Z,9816
2018-08-06T08:13:22.616Z,8904
2018-08-06T08:14:23.308Z,10304
2018-08-06T08:15:23.999Z,10872
2018-08-06T08:16:24.693Z,11468
2018-08-06T08:17:25.386Z,11552
2018-08-06T08:18:26.078Z,11500
2018-08-06T08:19:26.795Z,11300
2018-08-06T08:20:27.465Z,10896
2018-08-06T08:21:28.154Z,10508
2018-08-06T08:22:28.844Z,9704
2018-08-06T08:23:29.537Z,9424
2018-08-06T08:24:30.229Z,8840
2018-08-06T08:25:30.921Z,8312
2018-08-06T08:26:31.612Z,7808
2018-08-06T08:27:32.365Z,7372
2018-08-06T08:28:33.083Z,7092
2018-08-06T08:29:33.773Z,6904
2018-08-06T08:30:34.464Z,6720
2018-08-06T08:31:35.154Z,6564
2018-08-06T08:32:35.844Z,6364
2018-08-06T08:33:36.565Z,6104
2018-08-06T08:34:37.272Z,5860
2018-08-06T08:35:37.962Z,5588
2018-08-06T08:36:38.652Z,5400
2018-08-06T08:37:39.341Z,5312
2018-08-06T08:38:40.032Z,5256
2018-08-06T08:39:40.782Z,5236
2018-08-06T08:40:41.414Z,5200
2018-08-06T08:41:42.106Z,5128
2018-08-06T08:42:42.801Z,5032
2018-08-06T08:43:43.531Z,4948
2018-08-06T08:44:44.220Z,4900
2018-08-06T08:45:44.912Z,4952
2018-08-06T08:46:45.604Z,4820
2018-08-06T08:47:46.294Z,4772
2018-08-06T08:48:46.985Z,4772
2018-08-06T08:49:47.677Z,4728
2018-08-06T08:50:48.366Z,4320
2018-08-06T08:51:49.059Z,5092
2018-08-06T08:52:49.752Z,4964
2018-08-06T08:53:50.443Z,4844
2018-08-06T08:54:51.131Z,5104
2018-08-06T08:55:51.821Z,5084
2018-08-06T08:56:52.512Z,4800
2018-08-06T08:57:53.205Z,4860
2018-08-06T08:58:54.105Z,4932
2018-08-06T08:59:54.626Z,4864
2018-08-06T09:00:55.323Z,4764
2018-08-06T09:01:56.008Z,4676
2018-08-06T09:02:56.699Z,4596
2018-08-06T09:03:57.389Z,4508
2018-08-06T09:04:58.080Z,4420
2018-08-06T09:05:58.775Z,4324
2018-08-06T09:06:59.467Z,4300
2018-08-06T09:08:00.199Z,4288
2018-08-06T09:09:00.890Z,4276
2018-08-06T09:10:01.581Z,4268
2018-08-06T09:11:02.667Z,4252
2018-08-06T09:12:03.297Z,4232
2018-08-06T09:13:03.989Z,4220
2018-08-06T09:14:04.757Z,4212
2018-08-06T09:15:05.372Z,4208
2018-08-06T09:16:06.064Z,4200
2018-08-06T09:17:06.800Z,4180
2018-08-06T09:18:07.491Z,4148
2018-08-06T09:19:08.181Z,4128
2018-08-06T09:20:08.871Z,4136
2018-08-06T09:21:09.598Z,3620
2018-08-06T09:22:10.254Z,3468
2018-08-06T09:23:10.945Z,4192
2018-08-06T09:24:11.636Z,4172
2018-08-06T09:25:12.332Z,3008
2018-08-06T09:26:13.019Z,3240
2018-08-06T09:27:13.708Z,4024
2018-08-06T09:28:14.400Z,3820
2018-08-06T09:29:15.097Z,2692
2018-08-06T09:30:15.826Z,4140
2018-08-06T09:31:16.516Z,4180
2018-08-06T09:32:17.206Z,4228
2018-08-06T09:33:17.897Z,4332
2018-08-06T09:34:18.589Z,4384
2018-08-06T09:35:19.284Z,4440
2018-08-06T09:36:19.970Z,4440
2018-08-06T09:37:20.698Z,4388
2018-08-06T09:38:21.416Z,4320
2018-08-06T09:39:22.097Z,4300
2018-08-06T09:40:22.822Z,4284
2018-08-06T09:41:23.514Z,4292
2018-08-06T09:42:24.207Z,4284
2018-08-06T09:43:24.900Z,4304
2018-08-06T09:44:25.612Z,4348
2018-08-06T09:45:26.325Z,4388
2018-08-06T09:46:27.060Z,4464
2018-08-06T09:47:27.751Z,4456
2018-08-06T09:48:28.483Z,4528
2018-08-06T09:49:29.133Z,4772
2018-08-06T09:50:29.825Z,5116
2018-08-06T09:51:30.515Z,5380
2018-08-06T09:52:31.208Z,5544
2018-08-06T09:53:31.897Z,5736
2018-08-06T09:54:32.589Z,5936
2018-08-06T09:55:33.281Z,6016
2018-08-06T09:56:34.017Z,5988
2018-08-06T09:57:34.709Z,5940
2018-08-06T09:58:35.400Z,5672
2018-08-06T09:59:36.095Z,5424
2018-08-06T10:00:36.783Z,5192
2018-08-06T10:01:37.476Z,4988
2018-08-06T10:02:38.166Z,4828
2018-08-06T10:03:38.857Z,4656
2018-08-06T10:04:39.549Z,4508
2018-08-06T10:05:40.282Z,4400
2018-08-06T10:06:41.086Z,4392
2018-08-06T10:07:41.660Z,4368
2018-08-06T10:08:42.351Z,4312
2018-08-06T10:09:43.042Z,4356
2018-08-06T10:10:43.733Z,4364
2018-08-06T10:11:44.424Z,3368
2018-08-06T10:12:45.113Z,3860
2018-08-06T10:13:45.850Z,4028
2018-08-06T10:14:46.541Z,2576
2018-08-06T10:15:47.232Z,2852
2018-08-06T10:16:47.924Z,2572
2018-08-06T10:17:48.616Z,2604
2018-08-06T10:18:49.379Z,2760
2018-08-06T10:19:50.037Z,2856
2018-08-06T10:20:50.732Z,3804
2018-08-06T10:21:51.417Z,4508
2018-08-06T10:22:52.107Z,4952
2018-08-06T10:23:52.799Z,5076
2018-08-06T10:24:53.489Z,5160
2018-08-06T10:25:54.183Z,5208
2018-08-06T10:26:54.916Z,5216
2018-08-06T10:27:55.618Z,5064
2018-08-06T10:28:56.341Z,5180
2018-08-06T10:29:57.031Z,4548
2018-08-06T10:30:57.724Z,5076
2018-08-06T10:31:58.416Z,4888
2018-08-06T10:32:59.106Z,4788
2018-08-06T10:33:59.799Z,4760
2018-08-06T10:35:00.489Z,4592
2018-08-06T10:36:01.179Z,4132
2018-08-06T10:37:01.874Z,4332
2018-08-06T10:38:02.605Z,4172
2018-08-06T10:39:03.295Z,3972
2018-08-06T10:40:03.994Z,3800
2018-08-06T10:41:04.719Z,3744
2018-08-06T10:42:05.461Z,3692
2018-08-06T10:43:06.143Z,3664
2018-08-06T10:44:06.877Z,3680
2018-08-06T10:45:07.561Z,3660
2018-08-06T10:46:08.249Z,3628
2018-08-06T10:47:08.938Z,3592
2018-08-06T10:48:09.641Z,3580
2018-08-06T10:49:10.329Z,3564
2018-08-06T10:51:12.707Z,3536
2018-08-06T10:52:13.385Z,3568
2018-08-06T10:53:14.063Z,3612
2018-08-06T10:54:14.742Z,3704
2018-08-06T10:55:15.422Z,3696
2018-08-06T10:56:16.136Z,3740
2018-08-06T10:57:16.813Z,4144
2018-08-06T10:58:17.490Z,4256
2018-08-06T10:59:18.169Z,4380
2018-08-06T11:00:18.845Z,4456
2018-08-06T11:01:19.523Z,4460
2018-08-06T11:02:20.200Z,4440
2018-08-06T11:03:20.876Z,3792
2018-08-06T11:04:21.590Z,4368
2018-08-06T11:05:22.278Z,4308
2018-08-06T11:06:22.952Z,4220
2018-08-06T11:07:23.630Z,4120
2018-08-06T11:08:24.303Z,4032
2018-08-06T11:09:24.980Z,3964
2018-08-06T11:10:25.655Z,3888
2018-08-06T11:11:26.335Z,3836
2018-08-06T11:12:27.013Z,3800
2018-08-06T11:13:27.735Z,3760
2018-08-06T11:14:28.783Z,3700
2018-08-06T11:15:29.374Z,3632
2018-08-06T11:16:30.052Z,3584
2018-08-06T11:17:30.743Z,3552
2018-08-06T11:18:31.431Z,3532
2018-08-06T11:19:32.128Z,3528
2018-08-06T11:20:32.898Z,3528
2018-08-06T11:21:33.547Z,3600
2018-08-06T11:22:34.235Z,3600
2018-08-06T11:23:34.925Z,3612
2018-08-06T11:24:35.615Z,3612
2018-08-06T11:25:36.349Z,3628
2018-08-06T11:26:37.037Z,3660
2018-08-06T11:27:37.726Z,3704
2018-08-06T11:28:38.496Z,3760
2018-08-06T11:29:39.104Z,3824
2018-08-06T11:30:39.793Z,3888
2018-08-06T11:31:40.482Z,3916
2018-08-06T11:32:41.170Z,3912
2018-08-06T11:33:41.860Z,3892
2018-08-06T11:34:42.549Z,3876
2018-08-06T11:35:43.237Z,3880
2018-08-06T11:36:43.938Z,3880
2018-08-06T11:37:44.654Z,3832
2018-08-06T11:38:45.382Z,3932
2018-08-06T11:39:46.071Z,3960
2018-08-06T11:40:46.757Z,3984
2018-08-06T11:41:47.445Z,4016
2018-08-06T11:42:48.135Z,3860
2018-08-06T11:43:48.823Z,4032
2018-08-06T11:44:49.511Z,4032
2018-08-06T11:45:50.199Z,4028
2018-08-06T11:46:50.885Z,4008
2018-08-06T11:47:51.574Z,3984
2018-08-06T11:48:52.283Z,3984
2018-08-06T11:49:52.950Z,3972
2018-08-06T11:50:53.638Z,3980
2018-08-06T11:51:54.325Z,3672
2018-08-06T11:52:55.059Z,4056
2018-08-06T11:53:55.790Z,3980
2018-08-06T11:54:56.479Z,3984
2018-08-06T11:55:57.168Z,4000
2018-08-06T11:56:57.856Z,3964
2018-08-06T11:57:58.587Z,3956
2018-08-06T11:58:59.276Z,3872
2018-08-06T11:59:59.969Z,3988
2018-08-06T12:01:00.655Z,4024
2018-08-06T12:02:01.443Z,4000
2018-08-06T12:03:02.072Z,2048
2018-08-06T12:04:02.758Z,4116
2018-08-06T12:05:03.486Z,4216
2018-08-06T12:06:04.189Z,3888
2018-08-06T12:07:04.914Z,4352
2018-08-06T12:08:05.602Z,4224
2018-08-06T12:09:06.290Z,4268
2018-08-06T12:10:06.977Z,2320
2018-08-06T12:11:07.664Z,4236
2018-08-06T12:12:08.351Z,4196
2018-08-06T12:13:09.040Z,4172
2018-08-06T12:14:09.730Z,4152
2018-08-06T12:15:10.547Z,4200
2018-08-06T12:16:11.208Z,4220
2018-08-06T12:17:11.877Z,4256
2018-08-06T12:18:12.608Z,4256
2018-08-06T12:19:13.297Z,4280
2018-08-06T12:20:13.988Z,4284
2018-08-06T12:21:14.673Z,4264
2018-08-06T12:22:15.361Z,4236
2018-08-06T12:23:16.052Z,4208
2018-08-06T12:24:16.735Z,4188
2018-08-06T12:25:17.426Z,4164
2018-08-06T12:26:18.134Z,4144
2018-08-06T12:27:18.843Z,4132
2018-08-06T12:28:19.489Z,4128
2018-08-06T12:29:20.178Z,4140
2018-08-06T12:30:20.865Z,4152
2018-08-06T12:31:21.554Z,4156
2018-08-06T12:32:22.245Z,4160
2018-08-06T12:33:22.930Z,4172
2018-08-06T12:34:23.617Z,4188
2018-08-06T12:35:24.305Z,4208
2018-08-06T12:36:24.994Z,4256
2018-08-06T12:37:25.685Z,4196
2018-08-06T12:38:26.445Z,4196
2018-08-06T12:39:27.154Z,4200
2018-08-06T12:40:27.835Z,4220
2018-08-06T12:41:28.523Z,3756
2018-08-06T12:42:29.210Z,4188
2018-08-06T12:43:29.896Z,4216
2018-08-06T12:44:30.583Z,4228
2018-08-06T12:45:31.273Z,4240
2018-08-06T12:46:31.961Z,4308
2018-08-06T12:47:32.648Z,4344
2018-08-06T12:48:33.336Z,4388
2018-08-06T12:49:34.023Z,4408
2018-08-06T12:50:34.709Z,4412
2018-08-06T12:51:35.446Z,4412
2018-08-06T12:52:36.084Z,4420
2018-08-06T12:53:36.772Z,4404
2018-08-06T12:54:37.462Z,4400
2018-08-06T12:55:38.148Z,4380
2018-08-06T12:56:38.877Z,4372
2018-08-06T12:57:39.567Z,4340
2018-08-06T12:58:40.259Z,4320
2018-08-06T12:59:40.945Z,4304
2018-08-06T13:00:41.683Z,4288
2018-08-06T13:01:42.413Z,4280
2018-08-06T13:02:43.101Z,4272
2018-08-06T13:03:43.788Z,4276
2018-08-06T13:04:44.520Z,4280
2018-08-06T13:05:45.210Z,4260
2018-08-06T13:06:45.897Z,4272
2018-08-06T13:07:46.583Z,4280
2018-08-06T13:08:47.273Z,4288
2018-08-06T13:09:47.960Z,4280
2018-08-06T13:10:48.646Z,4276
2018-08-06T13:11:49.334Z,4268
2018-08-06T13:12:50.065Z,4280
2018-08-06T13:13:50.752Z,4276
2018-08-06T13:14:51.441Z,4280
2018-08-06T13:15:52.129Z,4280
2018-08-06T13:16:52.815Z,4300
2018-08-06T13:17:53.512Z,4300
2018-08-06T13:18:54.196Z,4296
2018-08-06T13:19:54.881Z,4308
2018-08-06T13:20:55.575Z,4296
2018-08-06T13:21:56.306Z,4316
2018-08-06T13:22:57.036Z,4368
2018-08-06T13:23:57.725Z,4368
2018-08-06T13:24:58.413Z,4380
2018-08-06T13:25:59.103Z,4384
2018-08-06T13:26:59.792Z,4368
2018-08-06T13:28:00.523Z,4388
2018-08-06T13:29:01.211Z,4408
2018-08-06T13:30:01.905Z,4400
2018-08-06T13:31:02.631Z,4408
2018-08-06T13:32:03.320Z,4412
2018-08-06T13:33:04.036Z,4412
2018-08-06T13:34:04.740Z,4436
2018-08-06T13:35:05.428Z,4436
2018-08-06T13:36:06.118Z,4452
2018-08-06T13:37:06.808Z,4452
2018-08-06T13:38:07.543Z,4452
2018-08-06T13:39:08.228Z,4456
2018-08-06T13:40:08.918Z,4472
2018-08-06T13:41:09.610Z,4480
2018-08-06T13:42:10.308Z,4484
2018-08-06T13:43:11.027Z,4488
2018-08-06T13:44:11.715Z,4484
2018-08-06T13:45:12.407Z,4512
2018-08-06T13:46:13.136Z,4508
2018-08-06T13:47:13.813Z,4508
2018-08-06T13:48:14.501Z,4520
2018-08-06T13:49:15.189Z,4528
2018-08-06T13:50:15.876Z,4548